Time;durP1;ratioP1;P1;durP2;ratioP2;P2;SDS_P1;SDS_P2;PMS_P1;PMS_P2;Temp;Humidity;BMP_temperature;BMP_pressure;BME280_temperature;BME280_humidity;BME280_pressure;Samples;Min_cycle;Max_cycle;Signal;HPM_P1;HPM_P2
2023/10/25 00:01:00;;;;;;;20.47;8.40;;;;;;;17.33;74.10;98986.84;5071867;28;20208;-63
2023/10/25 00:03:26;;;;;;;20.80;9.57;;;;;;;17.34;73.32;98988.47;5072494;28;20642;-62
2023/10/25 00:05:53;;;;;;;19.47;9.07;;;;;;;17.34;73.64;99008.06;5072516;28;20193;-62
2023/10/25 00:08:20;;;;;;;27.97;9.40;;;;;;;17.21;73.91;98996.91;5072104;28;20191;-62
2023/10/25 00:10:46;;;;;;;23.00;8.47;;;;;;;17.15;74.02;99003.28;5072243;28;20700;-62
2023/10/25 00:13:14;;;;;;;15.60;7.53;;;;;;;17.08;74.00;99000.78;5072347;28;20192;-63
2023/10/25 00:15:41;;;;;;;15.67;9.10;;;;;;;16.99;75.02;98996.09;5072024;28;20192;-62
2023/10/25 00:18:08;;;;;;;15.10;7.97;;;;;;;16.98;74.69;98987.22;5072195;28;20193;-62
2023/10/25 00:20:35;;;;;;;24.37;8.60;;;;;;;17.05;75.40;98976.31;5072351;28;20258;-62
2023/10/25 00:23:01;;;;;;;16.13;8.60;;;;;;;16.92;74.54;98976.69;5071820;28;20220;-62
2023/10/25 00:25:28;;;;;;;19.20;8.20;;;;;;;16.99;75.13;98988.06;5072371;28;20692;-62
2023/10/25 00:27:55;;;;;;;16.70;8.77;;;;;;;16.99;74.87;98961.22;5072412;28;20232;-63
2023/10/25 00:30:23;;;;;;;15.93;8.63;;;;;;;16.95;73.83;98968.16;5072179;28;20233;-62
2023/10/25 00:32:49;;;;;;;20.37;8.83;;;;;;;17.03;74.50;98967.72;5072348;28;20206;-62
2023/10/25 00:35:16;;;;;;;18.20;7.93;;;;;;;17.10;73.88;98965.63;5071733;28;20204;-62
2023/10/25 00:37:43;;;;;;;20.47;8.13;;;;;;;17.21;73.20;98959.31;5072031;28;20246;-62
2023/10/25 00:40:10;;;;;;;24.17;8.60;;;;;;;17.29;72.71;98958.88;5071741;28;20195;-63
2023/10/25 00:42:37;;;;;;;21.87;7.80;;;;;;;17.36;73.00;98956.81;5071524;28;20226;-62
2023/10/25 00:45:04;;;;;;;13.23;7.47;;;;;;;17.46;72.22;98962.31;5071666;28;20721;-62
2023/10/25 00:47:32;;;;;;;17.53;7.67;;;;;;;17.54;72.34;98959.19;5072002;28;20203;-63
2023/10/25 00:49:59;;;;;;;16.00;7.63;;;;;;;17.59;71.51;98945.78;5071646;28;20633;-63
2023/10/25 00:52:26;;;;;;;14.40;7.30;;;;;;;17.65;71.27;98958.22;5071873;28;20276;-62
2023/10/25 00:54:53;;;;;;;16.20;6.43;;;;;;;17.70;71.70;98960.94;5071831;28;20252;-63
2023/10/25 00:57:19;;;;;;;16.37;6.47;;;;;;;17.66;69.69;98967.91;5071520;28;20253;-63
2023/10/25 00:59:46;;;;;;;16.13;6.60;;;;;;;17.55;69.67;98982.28;5071569;28;20196;-63
2023/10/25 01:02:14;;;;;;;13.20;6.60;;;;;;;17.36;70.02;98978.31;5071776;28;20203;-63
2023/10/25 01:04:42;;;;;;;17.80;6.40;;;;;;;17.30;71.08;98985.47;5071373;28;20223;-63
2023/10/25 01:07:09;;;;;;;15.70;6.50;;;;;;;17.39;71.18;98983.19;5071695;28;20249;-63
2023/10/25 01:09:35;;;;;;;16.37;6.77;;;;;;;17.48;70.76;98973.63;5073671;28;20231;-63
2023/10/25 01:12:02;;;;;;;11.23;6.13;;;;;;;17.48;70.10;98970.94;5075532;28;20620;-63
2023/10/25 01:14:30;;;;;;;9.77;6.33;;;;;;;17.50;69.90;98982.22;5075847;28;20264;-62
2023/10/25 01:16:57;;;;;;;10.57;6.50;;;;;;;17.50;70.39;98966.13;5075457;28;20583;-63
2023/10/25 01:19:24;;;;;;;14.13;6.40;;;;;;;17.58;70.99;98974.53;5075493;28;20192;-63
2023/10/25 01:21:53;;;;;;;14.77;5.73;;;;;;;17.60;70.10;98985.03;5075672;28;20196;-65
2023/10/25 01:24:21;;;;;;;18.90;6.57;;;;;;;17.67;69.50;98982.94;5075780;28;20235;-63
2023/10/25 01:26:48;;;;;;;17.83;6.83;;;;;;;17.68;68.98;98984.59;5075135;28;20231;-63
2023/10/25 01:29:15;;;;;;;15.30;5.83;;;;;;;17.66;69.23;98979.47;5075184;28;20701;-63
2023/10/25 01:31:41;;;;;;;11.17;5.70;;;;;;;17.63;69.81;98979.13;5075567;28;20196;-63
2023/10/25 01:34:08;;;;;;;14.33;6.57;;;;;;;17.59;69.71;98972.66;5075373;28;20198;-63
2023/10/25 01:36:35;;;;;;;13.10;6.60;;;;;;;17.59;69.58;98953.84;5075488;28;20252;-63
2023/10/25 01:39:01;;;;;;;19.53;6.23;;;;;;;17.55;71.16;98947.38;5075336;28;20571;-63
2023/10/25 01:41:30;;;;;;;12.90;6.37;;;;;;;17.55;70.01;98950.06;5075390;28;20249;-63
2023/10/25 01:43:56;;;;;;;14.00;6.43;;;;;;;17.64;70.10;98953.91;5075279;28;20216;-63
2023/10/25 01:46:23;;;;;;;15.07;6.87;;;;;;;17.57;70.46;98947.94;5075006;28;20196;-63
2023/10/25 01:48:50;;;;;;;17.80;7.13;;;;;;;17.52;71.14;98950.59;5074807;28;20776;-63
2023/10/25 01:51:16;;;;;;;15.43;6.63;;;;;;;17.48;69.89;98938.72;5075134;28;20192;-64
2023/10/25 01:53:43;;;;;;;10.50;6.63;;;;;;;17.47;69.67;98923.69;5074985;28;20203;-63
2023/10/25 01:56:10;;;;;;;18.37;7.17;;;;;;;17.46;70.07;98919.34;5074790;28;20195;-64
2023/10/25 01:58:38;;;;;;;14.97;6.93;;;;;;;17.48;70.53;98906.50;5075262;28;20238;-63
2023/10/25 02:01:06;;;;;;;17.40;6.70;;;;;;;17.46;71.29;98897.88;5074644;28;20222;-63
2023/10/25 02:03:33;;;;;;;14.50;6.60;;;;;;;17.43;70.91;98887.66;5074432;28;20284;-63
2023/10/25 02:05:59;;;;;;;11.27;6.30;;;;;;;17.46;70.46;98900.56;5075047;28;20199;-63
2023/10/25 02:08:26;;;;;;;12.47;6.33;;;;;;;17.45;71.76;98890.88;5074474;28;20202;-63
2023/10/25 02:10:53;;;;;;;16.07;6.10;;;;;;;17.50;71.33;98893.63;5074746;28;20267;-64
2023/10/25 02:13:19;;;;;;;15.93;6.77;;;;;;;17.59;71.11;98889.38;5074551;28;20238;-63
2023/10/25 02:15:47;;;;;;;12.90;6.23;;;;;;;17.62;70.90;98878.16;5074909;28;20261;-63
2023/10/25 02:18:14;;;;;;;16.57;6.10;;;;;;;17.58;70.11;98864.44;5074231;28;20236;-63
2023/10/25 02:20:41;;;;;;;17.80;5.83;;;;;;;17.64;70.22;98874.13;5074317;28;20198;-63
2023/10/25 02:23:08;;;;;;;14.57;6.33;;;;;;;17.68;70.02;98879.81;5074118;28;20196;-63
2023/10/25 02:25:34;;;;;;;17.63;6.40;;;;;;;17.70;70.08;98888.41;5074200;28;20192;-63
2023/10/25 02:28:01;;;;;;;16.20;5.97;;;;;;;17.65;70.17;98896.44;5074551;28;20232;-63
2023/10/25 02:30:28;;;;;;;12.20;5.70;;;;;;;17.63;70.61;98895.88;5074171;28;20253;-63
2023/10/25 02:32:56;;;;;;;20.47;6.47;;;;;;;17.59;70.72;98902.81;5074418;28;20218;-64
2023/10/25 02:35:22;;;;;;;25.97;6.43;;;;;;;17.54;71.10;98911.66;5074435;28;20191;-63
2023/10/25 02:37:49;;;;;;;6.67;5.73;;;;;;;17.53;71.36;98911.91;5073922;28;20187;-64
2023/10/25 02:40:16;;;;;;;9.30;6.00;;;;;;;17.53;71.15;98909.22;5074272;28;20196;-63
2023/10/25 02:42:46;;;;;;;12.60;6.80;;;;;;;17.60;72.09;98912.53;5074172;28;20192;-64
2023/10/25 02:45:13;;;;;;;15.50;6.07;;;;;;;17.63;70.72;98920.03;5074077;28;20215;-63
2023/10/25 02:47:40;;;;;;;22.60;6.57;;;;;;;17.65;70.50;98924.13;5073816;28;20630;-63
2023/10/25 02:50:09;;;;;;;16.17;6.53;;;;;;;17.67;70.38;98926.53;5074041;28;20188;-63
2023/10/25 02:52:35;;;;;;;18.83;6.33;;;;;;;17.60;70.67;98931.31;5074062;28;20620;-63
2023/10/25 02:55:02;;;;;;;18.27;6.23;;;;;;;17.55;70.86;98934.75;5073893;28;20261;-63
2023/10/25 02:57:29;;;;;;;19.57;7.27;;;;;;;17.55;70.92;98945.50;5073723;28;20192;-63
2023/10/25 02:59:56;;;;;;;17.17;6.90;;;;;;;17.56;70.87;98936.38;5073483;28;20729;-64
2023/10/25 03:02:22;;;;;;;17.40;6.63;;;;;;;17.53;70.62;98926.16;5073788;28;20196;-62
2023/10/25 03:04:49;;;;;;;22.80;6.57;;;;;;;17.47;70.91;98934.41;5073453;28;20693;-63
2023/10/25 03:07:17;;;;;;;16.80;6.37;;;;;;;17.43;71.31;98933.31;5073800;28;20192;-63
2023/10/25 03:09:44;;;;;;;18.77;6.57;;;;;;;17.41;71.31;98935.41;5073287;28;20660;-63
2023/10/25 03:12:11;;;;;;;20.77;7.17;;;;;;;17.37;71.25;98927.03;5073957;28;20203;-63
2023/10/25 03:14:37;;;;;;;15.77;6.73;;;;;;;17.35;71.03;98941.78;5073555;28;20227;-64
2023/10/25 03:17:04;;;;;;;21.33;7.47;;;;;;;17.27;71.81;98928.81;5073639;28;20253;-63
2023/10/25 03:19:31;;;;;;;13.63;7.63;;;;;;;17.17;72.21;98936.75;5073027;28;20728;-64
2023/10/25 03:21:58;;;;;;;21.33;7.83;;;;;;;17.02;71.50;98933.91;5073549;28;20257;-64
2023/10/25 03:24:26;;;;;;;14.43;7.80;;;;;;;16.81;72.05;98937.38;5073275;28;20225;-63
2023/10/25 03:26:53;;;;;;;15.87;7.80;;;;;;;16.79;73.17;98944.88;5073173;28;20625;-63
2023/10/25 03:29:20;;;;;;;14.47;7.57;;;;;;;16.89;73.03;98945.81;5073080;28;20188;-63
2023/10/25 03:31:46;;;;;;;10.73;7.70;;;;;;;17.01;72.85;98964.44;5072690;28;20250;-63
2023/10/25 03:34:15;;;;;;;20.07;7.87;;;;;;;17.11;72.95;98951.19;5072822;28;20253;-63
2023/10/25 03:36:41;;;;;;;25.87;7.40;;;;;;;17.20;71.91;98957.72;5073189;28;20551;-63
2023/10/25 03:39:08;;;;;;;17.53;6.83;;;;;;;17.27;72.01;98958.34;5073015;28;20191;-63
2023/10/25 03:41:36;;;;;;;18.77;6.47;;;;;;;17.17;71.52;98968.94;5073086;28;20256;-63
2023/10/25 03:44:03;;;;;;;22.07;7.10;;;;;;;17.04;72.31;98959.41;5072809;28;20275;-63
2023/10/25 03:46:30;;;;;;;16.93;7.27;;;;;;;17.00;72.96;98957.47;5072672;28;20694;-63
2023/10/25 03:48:56;;;;;;;23.27;7.37;;;;;;;17.04;72.81;98958.59;5072832;28;20250;-64
2023/10/25 03:51:23;;;;;;;9.93;5.90;;;;;;;17.13;72.26;98967.81;5072866;28;20200;-64
2023/10/25 03:53:50;;;;;;;18.03;7.17;;;;;;;17.22;72.46;98982.41;5072448;28;20962;-63
2023/10/25 03:56:16;;;;;;;19.23;6.57;;;;;;;17.31;71.62;98980.94;5073009;28;20196;-63
2023/10/25 03:58:44;;;;;;;13.40;6.50;;;;;;;17.37;71.40;98963.81;5072402;28;20195;-64
2023/10/25 04:01:11;;;;;;;16.30;6.50;;;;;;;17.43;71.18;98957.47;5072332;28;20253;-63
2023/10/25 04:03:38;;;;;;;24.13;6.47;;;;;;;17.34;70.80;98949.00;5072254;28;20618;-63
2023/10/25 04:06:05;;;;;;;16.90;6.30;;;;;;;17.36;71.64;98940.72;5072167;28;20228;-63
2023/10/25 04:08:32;;;;;;;20.17;6.23;;;;;;;17.46;71.58;98930.09;5072612;28;20191;-63
2023/10/25 04:10:59;;;;;;;10.90;5.97;;;;;;;17.52;70.92;98921.81;5071304;28;20724;-62
2023/10/25 04:13:27;;;;;;;19.53;6.50;;;;;;;17.52;70.66;98908.41;5072122;28;20245;-63
2023/10/25 04:15:56;;;;;;;15.03;6.50;;;;;;;17.62;70.73;98913.06;5072273;28;20195;-64
2023/10/25 04:18:24;;;;;;;31.70;6.90;;;;;;;17.54;70.53;98900.09;5072595;28;20188;-62
2023/10/25 04:20:51;;;;;;;19.60;5.73;;;;;;;17.59;70.83;98908.19;5072286;28;20284;-63
2023/10/25 04:23:18;;;;;;;15.07;6.17;;;;;;;17.69;70.84;98889.50;5072035;28;20192;-62
2023/10/25 04:25:44;;;;;;;15.67;6.30;;;;;;;17.73;69.72;98887.91;5072428;28;20258;-63
2023/10/25 04:28:11;;;;;;;18.27;6.17;;;;;;;17.68;69.81;98891.34;5072364;28;20305;-63
2023/10/25 04:30:38;;;;;;;22.43;5.90;;;;;;;17.67;70.21;98883.56;5072081;28;20194;-63
2023/10/25 04:33:07;;;;;;;21.83;6.60;;;;;;;17.68;69.70;98863.72;5071451;28;20195;-65
2023/10/25 04:35:33;;;;;;;25.00;7.73;;;;;;;17.62;69.99;98876.28;5071198;28;20725;-64
2023/10/25 04:38:01;;;;;;;15.90;5.93;;;;;;;17.47;69.67;98878.03;5071592;28;20257;-63
2023/10/25 04:40:27;;;;;;;12.50;5.83;;;;;;;17.40;70.54;98856.72;5071317;28;20218;-63
2023/10/25 04:42:54;;;;;;;21.60;6.30;;;;;;;17.44;71.04;98846.31;5070793;28;20192;-63
2023/10/25 04:45:21;;;;;;;21.03;6.43;;;;;;;17.52;70.23;98848.53;5070889;28;20269;-63
2023/10/25 04:47:50;;;;;;;23.50;7.53;;;;;;;17.56;69.90;98852.31;5070945;28;20226;-63
2023/10/25 04:50:18;;;;;;;24.93;7.17;;;;;;;17.59;70.10;98846.41;5069105;28;20200;-63
2023/10/25 04:52:45;;;;;;;27.23;7.20;;;;;;;17.58;70.14;98834.88;5071150;28;20721;-63
2023/10/25 04:55:12;;;;;;;41.73;8.63;;;;;;;17.58;70.13;98834.06;5070967;28;20226;-64
2023/10/25 04:57:39;;;;;;;32.50;7.97;;;;;;;17.55;71.05;98831.88;5071661;28;20190;-64
2023/10/25 05:00:09;;;;;;;29.83;7.57;;;;;;;17.59;70.75;98843.72;5070966;28;20226;-64
2023/10/25 05:02:36;;;;;;;19.97;6.53;;;;;;;17.62;70.92;98838.69;5070486;28;20195;-64
2023/10/25 05:05:03;;;;;;;11.90;6.17;;;;;;;17.67;70.68;98840.56;5070928;28;20648;-64
2023/10/25 05:07:32;;;;;;;18.30;6.93;;;;;;;17.69;70.80;98844.66;5071395;28;20199;-64
2023/10/25 05:09:59;;;;;;;20.23;7.00;;;;;;;17.77;70.41;98837.97;5070904;28;20245;-64
2023/10/25 05:12:35;;;;;;;14.80;6.77;;;;;;;17.82;70.47;98835.31;5070963;28;20189;-63
2023/10/25 05:15:03;;;;;;;25.07;7.80;;;;;;;17.89;69.85;98838.59;5069401;28;20640;-64
2023/10/25 05:17:30;;;;;;;19.20;7.03;;;;;;;17.82;70.09;98832.63;5070884;28;20196;-64
2023/10/25 05:19:57;;;;;;;13.40;6.43;;;;;;;17.46;70.99;98828.06;5070895;28;20839;-64
2023/10/25 05:22:26;;;;;;;22.00;7.33;;;;;;;17.57;70.77;98819.03;5070894;28;20643;-63
2023/10/25 05:24:55;;;;;;;23.17;7.57;;;;;;;17.61;69.55;98836.25;5070954;28;20318;-64
2023/10/25 05:27:22;;;;;;;23.83;8.50;;;;;;;17.45;69.86;98839.88;5067994;28;20764;-64
2023/10/25 05:29:50;;;;;;;21.70;7.10;;;;;;;17.38;70.44;98842.75;5070992;28;20194;-66
2023/10/25 05:32:19;;;;;;;22.23;8.03;;;;;;;17.44;70.28;98851.69;5071087;28;20200;-66
2023/10/25 05:34:48;;;;;;;18.33;7.13;;;;;;;17.37;70.57;98856.41;5070775;28;20655;-64
2023/10/25 05:37:15;;;;;;;16.03;7.70;;;;;;;17.41;70.37;98853.00;5070805;28;20192;-64
2023/10/25 05:39:42;;;;;;;19.20;7.90;;;;;;;17.45;70.55;98843.38;5068341;28;20188;-65
2023/10/25 05:42:19;;;;;;;21.27;8.20;;;;;;;17.55;71.10;98832.72;5070973;28;20188;-64
2023/10/25 05:44:46;;;;;;;17.13;7.57;;;;;;;17.64;70.16;98833.84;5068120;28;20199;-64
2023/10/25 05:47:14;;;;;;;22.73;8.23;;;;;;;17.63;70.37;98839.47;5070446;28;20192;-64
2023/10/25 05:49:41;;;;;;;45.20;9.67;;;;;;;17.63;70.26;98855.59;5070735;28;20188;-64
2023/10/25 05:52:10;;;;;;;32.40;9.77;;;;;;;17.58;71.16;98861.75;5068186;28;20261;-64
2023/10/25 05:54:38;;;;;;;32.97;8.77;;;;;;;17.60;70.25;98861.50;5068325;28;20220;-64
2023/10/25 05:57:06;;;;;;;23.53;8.60;;;;;;;17.68;70.29;98863.72;5075103;28;20252;-64
2023/10/25 05:59:35;;;;;;;23.20;8.60;;;;;;;17.69;69.82;98876.06;5074263;28;20201;-63
2023/10/25 06:02:08;;;;;;;21.30;9.13;;;;;;;17.67;69.95;98872.81;5074535;28;20196;-63
2023/10/25 06:04:37;;;;;;;22.13;8.50;;;;;;;17.69;69.92;98870.69;5074498;28;20204;-67
2023/10/25 06:07:05;;;;;;;23.03;8.50;;;;;;;17.72;70.32;98870.19;5074359;28;20203;-65
2023/10/25 06:09:32;;;;;;;23.93;10.07;;;;;;;17.71;69.86;98874.75;5070077;28;20260;-65
2023/10/25 06:11:59;;;;;;;25.20;10.70;;;;;;;17.78;70.04;98888.78;5073556;28;20195;-64
2023/10/25 06:14:28;;;;;;;31.80;9.97;;;;;;;17.86;70.54;98882.09;5073992;28;20196;-63
2023/10/25 06:16:56;;;;;;;30.50;11.67;;;;;;;17.83;69.98;98882.59;5072230;28;20644;-81
2023/10/25 06:19:23;;;;;;;18.70;9.47;;;;;;;17.80;70.76;98888.53;5073096;28;20246;-75
2023/10/25 06:21:50;;;;;;;26.63;10.20;;;;;;;17.84;69.92;98898.47;5073623;28;20192;-79
2023/10/25 06:24:16;;;;;;;31.43;9.03;;;;;;;17.82;70.28;98905.19;5073528;28;20188;-79
2023/10/25 06:26:43;;;;;;;24.47;8.77;;;;;;;17.69;68.98;98913.66;5072450;28;20222;-77
2023/10/25 06:29:10;;;;;;;28.13;9.53;;;;;;;17.56;69.76;98914.09;5073624;28;20192;-77
2023/10/25 06:31:37;;;;;;;29.60;9.17;;;;;;;17.66;70.84;98924.91;5072017;28;20664;-72
2023/10/25 06:34:05;;;;;;;32.67;9.67;;;;;;;17.99;70.68;98914.72;5074176;28;20217;-75
2023/10/25 06:36:33;;;;;;;27.73;9.07;;;;;;;18.29;71.19;98922.19;5073584;28;20270;-81
2023/10/25 06:39:04;;;;;;;33.77;8.63;;;;;;;18.64;73.33;98927.81;5074293;28;20655;-77
2023/10/25 06:41:32;;;;;;;27.30;8.63;;;;;;;19.09;70.67;98928.00;5080806;28;20539;-76
2023/10/25 06:43:59;;;;;;;28.97;9.07;;;;;;;19.41;68.70;98916.00;5073533;28;20605;-78
2023/10/25 06:46:26;;;;;;;32.30;7.97;;;;;;;19.67;67.67;98912.25;5072016;28;20637;-79
2023/10/25 06:48:54;;;;;;;22.87;8.80;;;;;;;19.98;62.72;98929.25;5073299;28;20200;-65
2023/10/25 06:51:23;;;;;;;37.47;9.23;;;;;;;20.03;62.73;98926.53;5072541;28;20333;-65
2023/10/25 06:53:50;;;;;;;40.97;9.83;;;;;;;20.02;63.29;98925.72;5070944;28;20615;-64
2023/10/25 06:56:17;;;;;;;34.13;9.47;;;;;;;19.99;63.46;98920.91;5071936;28;20199;-64
2023/10/25 06:58:44;;;;;;;27.10;8.87;;;;;;;19.87;63.44;98917.66;5073016;28;20683;-64
2023/10/25 07:01:13;;;;;;;30.93;9.07;;;;;;;19.78;64.47;98913.91;5072387;28;20627;-64
2023/10/25 07:03:46;;;;;;;26.03;8.80;;;;;;;19.79;64.02;98906.59;5072909;28;20261;-63
2023/10/25 07:06:15;;;;;;;26.97;8.73;;;;;;;19.80;63.88;98922.50;5071532;28;20623;-64
2023/10/25 07:08:44;;;;;;;22.87;8.90;;;;;;;19.67;63.75;98924.91;5072718;28;20234;-66
2023/10/25 07:11:11;;;;;;;27.43;8.87;;;;;;;19.52;63.60;98924.91;5072104;28;20664;-67
2023/10/25 07:13:38;;;;;;;25.30;9.63;;;;;;;19.28;64.90;98923.78;5072744;28;20191;-64
2023/10/25 07:16:05;;;;;;;34.53;9.33;;;;;;;19.00;67.27;98916.94;5071101;28;20204;-66
2023/10/25 07:18:32;;;;;;;28.10;9.37;;;;;;;18.89;66.96;98917.16;5069296;28;20281;-67
2023/10/25 07:20:59;;;;;;;30.17;10.47;;;;;;;18.90;67.02;98894.53;5063778;28;20211;-68
2023/10/25 07:23:25;;;;;;;96.70;15.37;;;;;;;18.87;66.72;98903.16;5072250;28;20218;-65
2023/10/25 07:25:54;;;;;;;29.37;9.40;;;;;;;18.70;67.67;98899.88;5071989;28;20227;-66
2023/10/25 07:28:22;;;;;;;41.17;12.33;;;;;;;18.52;68.03;98895.75;5072463;28;20192;-66
2023/10/25 07:30:48;;;;;;;47.17;13.23;;;;;;;18.46;68.67;98893.28;5072576;28;20253;-66
2023/10/25 07:33:17;;;;;;;36.73;13.23;;;;;;;18.55;68.31;98899.78;5072417;28;20342;-66
2023/10/25 07:35:44;;;;;;;40.00;13.43;;;;;;;18.42;68.47;98905.63;5071635;28;20199;-66
2023/10/25 07:38:11;;;;;;;39.00;14.37;;;;;;;18.27;69.36;98900.13;5071783;28;20579;-67
2023/10/25 07:40:39;;;;;;;38.60;14.20;;;;;;;18.29;69.90;98898.78;5071025;28;20200;-65
2023/10/25 07:43:08;;;;;;;45.70;13.63;;;;;;;18.40;69.74;98905.06;5071678;28;20671;-66
2023/10/25 07:45:34;;;;;;;51.60;14.43;;;;;;;18.49;68.85;98919.63;5071139;28;20227;-67
2023/10/25 07:48:01;;;;;;;39.07;12.13;;;;;;;18.53;69.36;98926.13;5070907;28;20725;-67
2023/10/25 07:50:28;;;;;;;33.10;11.73;;;;;;;18.63;68.72;98918.13;5071667;28;20330;-68
2023/10/25 07:52:55;;;;;;;36.33;10.63;;;;;;;18.79;68.41;98938.66;5071041;28;20737;-68
2023/10/25 07:55:21;;;;;;;27.03;10.50;;;;;;;18.89;67.98;98936.81;5070380;28;20206;-67
2023/10/25 07:57:48;;;;;;;47.10;11.87;;;;;;;18.98;67.51;98934.41;5070948;28;20219;-67
2023/10/25 08:00:17;;;;;;;37.43;12.00;;;;;;;18.90;67.98;98916.06;5071460;28;20201;-67
2023/10/25 08:02:43;;;;;;;41.27;12.27;;;;;;;18.81;67.28;98912.28;5070641;28;20278;-67
2023/10/25 08:05:10;;;;;;;60.83;13.27;;;;;;;18.75;67.81;98913.34;5071192;28;20312;-67
2023/10/25 08:07:37;;;;;;;41.70;12.07;;;;;;;18.75;68.03;98902.56;5070820;28;20197;-67
2023/10/25 08:10:06;;;;;;;33.97;9.90;;;;;;;18.95;68.17;98922.28;5071786;28;20201;-68
2023/10/25 08:12:35;;;;;;;39.47;10.97;;;;;;;19.00;67.85;98921.50;5071202;28;20748;-67
2023/10/25 08:15:03;;;;;;;37.63;11.87;;;;;;;19.02;67.30;98932.81;5071145;28;20231;-67
2023/10/25 08:17:31;;;;;;;44.43;11.07;;;;;;;19.01;67.34;98931.19;5070817;28;20190;-66
2023/10/25 08:19:58;;;;;;;47.00;10.90;;;;;;;18.88;67.91;98942.44;5071408;28;20254;-67
2023/10/25 08:22:24;;;;;;;24.17;9.77;;;;;;;18.78;68.22;98923.59;5071084;28;20223;-66
2023/10/25 08:24:51;;;;;;;33.33;11.00;;;;;;;18.74;68.63;98917.09;5070424;28;20735;-66
2023/10/25 08:27:19;;;;;;;27.80;10.53;;;;;;;18.71;69.20;98909.56;5070563;28;20279;-66
2023/10/25 08:29:45;;;;;;;26.53;9.77;;;;;;;18.67;69.18;98900.38;5070201;28;20239;-65
2023/10/25 08:32:12;;;;;;;28.97;9.20;;;;;;;18.62;69.48;98903.84;5070298;28;20715;-65
2023/10/25 08:34:46;;;;;;;27.80;10.57;;;;;;;18.51;69.34;98912.13;5070023;28;20232;-65
2023/10/25 08:37:13;;;;;;;35.90;10.33;;;;;;;18.53;69.23;98912.66;5069797;28;20199;-64
2023/10/25 08:39:40;;;;;;;24.17;9.10;;;;;;;18.50;69.43;98905.16;5070338;28;20218;-64
2023/10/25 08:42:10;;;;;;;29.33;9.60;;;;;;;18.49;69.67;98911.56;5070291;28;20195;-65
2023/10/25 08:44:40;;;;;;;32.43;10.50;;;;;;;18.43;69.70;98904.56;5070731;28;20249;-67
2023/10/25 08:47:07;;;;;;;29.93;9.37;;;;;;;18.35;69.94;98918.50;5070090;28;20274;-65
2023/10/25 08:49:34;;;;;;;30.27;8.83;;;;;;;18.46;69.93;98914.81;5070938;28;20205;-65
2023/10/25 08:52:02;;;;;;;29.30;9.20;;;;;;;18.61;70.01;98917.56;5070787;28;20199;-66
2023/10/25 08:54:30;;;;;;;28.37;9.63;;;;;;;18.71;69.43;98912.25;5070139;28;20243;-66
2023/10/25 08:56:57;;;;;;;33.63;10.30;;;;;;;18.51;69.76;98917.50;5069755;28;20930;-67
2023/10/25 08:59:24;;;;;;;20.73;9.87;;;;;;;18.70;71.58;98924.09;5072116;28;20626;-66
2023/10/25 09:01:50;;;;;;;33.73;9.40;;;;;;;19.04;69.26;98922.59;5070834;28;20193;-67
2023/10/25 09:04:17;;;;;;;22.73;9.77;;;;;;;19.24;69.20;98917.31;5070738;28;20669;-66
2023/10/25 09:06:45;;;;;;;17.80;9.03;;;;;;;19.34;67.94;98911.94;5069854;28;20326;-66
2023/10/25 09:09:13;;;;;;;20.17;8.77;;;;;;;19.50;67.93;98919.78;5070484;28;20283;-67
2023/10/25 09:11:41;;;;;;;19.07;8.43;;;;;;;19.57;68.05;98924.91;5070237;28;20659;-67
2023/10/25 09:14:10;;;;;;;25.13;9.87;;;;;;;19.81;67.57;98924.13;5067134;28;20200;-68
2023/10/25 09:16:39;;;;;;;29.17;8.63;;;;;;;19.89;65.57;98909.31;5064528;28;20196;-69
2023/10/25 09:19:06;;;;;;;36.33;8.60;;;;;;;20.00;65.83;98927.91;5067467;28;20886;-67
2023/10/25 09:35:53;;;;;;;28.50;8.90;;;;;;;20.49;63.02;98903.84;4939691;28;20207;-75
2023/10/25 09:38:27;;;;;;;29.10;9.50;;;;;;;20.49;63.34;98903.84;5001381;28;20743;-76
2023/10/25 09:40:59;;;;;;;15.23;8.73;;;;;;;20.49;63.19;98909.22;5074931;28;20188;-74
2023/10/25 09:43:34;;;;;;;25.43;8.97;;;;;;;20.56;62.35;98904.38;5074338;28;20255;-76
2023/10/25 09:46:08;;;;;;;25.23;10.20;;;;;;;20.65;63.15;98908.13;5072746;28;20203;-76
2023/10/25 09:48:44;;;;;;;17.13;8.73;;;;;;;20.80;63.55;98908.06;5074284;28;20195;-76
2023/10/25 09:52:01;;;;;;;28.83;8.83;;;;;;;21.05;62.88;98894.47;5073948;28;20196;-75
2023/10/25 09:54:33;;;;;;;20.20;8.70;;;;;;;21.19;61.51;98887.38;5074315;28;20224;-69
2023/10/25 09:57:02;;;;;;;26.93;7.90;;;;;;;21.17;61.02;98886.03;5073626;28;20196;-68
2023/10/25 09:59:31;;;;;;;20.40;8.00;;;;;;;21.21;60.67;98890.63;5074190;28;20207;-70
2023/10/25 10:02:00;;;;;;;25.60;9.03;;;;;;;21.13;61.42;98904.72;5074184;28;20608;-70
2023/10/25 10:04:37;;;;;;;20.17;7.90;;;;;;;21.20;61.62;98899.81;5073860;28;20639;-70
2023/10/25 10:07:12;;;;;;;27.80;8.30;;;;;;;21.38;61.45;98891.03;5073476;28;20204;-68
2023/10/25 10:09:47;;;;;;;31.60;8.73;;;;;;;21.60;61.08;98877.13;5074154;28;20214;-69
2023/10/25 10:12:14;;;;;;;21.53;8.17;;;;;;;21.76;59.95;98875.94;5073391;28;20183;-70
2023/10/25 10:14:41;;;;;;;28.13;8.97;;;;;;;22.02;59.92;98872.72;5073529;28;20188;-70
2023/10/25 10:17:09;;;;;;;14.70;6.87;;;;;;;22.29;59.19;98873.00;5073676;28;20211;-70
2023/10/25 10:19:41;;;;;;;28.63;8.40;;;;;;;22.58;57.48;98879.19;5073317;28;20265;-69
2023/10/25 10:22:10;;;;;;;22.20;7.57;;;;;;;22.79;58.02;98861.59;5074760;28;20204;-71
2023/10/25 10:24:43;;;;;;;24.13;7.53;;;;;;;22.95;56.56;98856.81;5070044;28;20278;-70
2023/10/25 10:27:10;;;;;;;21.43;6.70;;;;;;;23.07;55.28;98855.28;5068519;28;20239;-70
2023/10/25 10:29:38;;;;;;;18.13;7.27;;;;;;;23.15;54.95;98851.91;5071310;28;20266;-69
2023/10/25 10:32:06;;;;;;;14.70;7.77;;;;;;;23.22;54.42;98841.53;5072405;28;20731;-68
2023/10/25 10:34:41;;;;;;;23.73;7.57;;;;;;;23.24;54.14;98836.63;5072924;28;20196;-71
2023/10/25 10:37:08;;;;;;;20.67;6.57;;;;;;;23.24;54.01;98833.91;5072863;28;20243;-70
2023/10/25 10:39:36;;;;;;;30.53;7.77;;;;;;;23.19;54.23;98831.25;5070883;28;20585;-69
2023/10/25 10:42:05;;;;;;;26.93;7.93;;;;;;;23.25;54.85;98835.53;5071679;28;20186;-68
2023/10/25 10:44:35;;;;;;;23.67;7.67;;;;;;;23.19;53.91;98846.72;5072694;28;20254;-68
2023/10/25 10:47:07;;;;;;;28.67;7.80;;;;;;;23.01;53.89;98836.66;5072847;28;20212;-67
2023/10/25 10:49:36;;;;;;;18.47;6.97;;;;;;;22.94;55.17;98834.31;5073150;28;20722;-69
2023/10/25 10:52:03;;;;;;;31.63;8.73;;;;;;;23.05;54.83;98830.38;5073483;28;20196;-66
2023/10/25 10:54:30;;;;;;;46.03;8.53;;;;;;;23.06;54.79;98825.75;5072815;28;20217;-67
2023/10/25 10:56:57;;;;;;;15.07;7.17;;;;;;;23.01;55.20;98813.09;5072752;28;20254;-67
2023/10/25 10:59:28;;;;;;;20.23;7.10;;;;;;;23.10;54.71;98815.94;5072512;28;20196;-68
2023/10/25 11:01:55;;;;;;;17.57;7.03;;;;;;;23.07;54.40;98806.50;5072605;28;20259;-67
2023/10/25 11:04:22;;;;;;;32.20;7.60;;;;;;;23.18;54.30;98797.13;5073012;28;20229;-68
2023/10/25 11:06:48;;;;;;;19.03;7.40;;;;;;;23.26;54.48;98788.38;5071957;28;20222;-68
2023/10/25 11:09:15;;;;;;;19.97;7.77;;;;;;;23.24;54.32;98784.34;5075675;28;20668;-66
2023/10/25 11:11:42;;;;;;;27.87;7.37;;;;;;;23.29;54.49;98787.78;5073783;28;20649;-67
2023/10/25 11:14:09;;;;;;;21.27;7.20;;;;;;;23.33;54.12;98780.69;5072753;28;20205;-67
2023/10/25 11:16:37;;;;;;;13.40;6.63;;;;;;;23.48;54.53;98780.41;5071710;28;20255;-68
2023/10/25 11:19:08;;;;;;;21.10;7.20;;;;;;;23.53;53.61;98774.09;5072268;28;20197;-69
2023/10/25 11:21:35;;;;;;;13.40;6.57;;;;;;;23.56;53.16;98787.84;5072861;28;20233;-68
2023/10/25 11:24:06;;;;;;;23.43;7.30;;;;;;;23.56;53.79;98781.66;5072014;28;20247;-69
2023/10/25 11:26:37;;;;;;;27.23;7.17;;;;;;;23.59;54.07;98764.75;5071395;28;20228;-69
2023/10/25 11:29:05;;;;;;;22.20;6.70;;;;;;;23.65;53.53;98767.09;5072128;28;20194;-67
2023/10/25 11:31:33;;;;;;;27.07;7.60;;;;;;;23.67;52.72;98767.59;5072362;28;20210;-67
2023/10/25 11:34:02;;;;;;;27.87;7.90;;;;;;;23.71;53.00;98767.81;5071744;28;20195;-69
2023/10/25 11:36:32;;;;;;;28.97;8.00;;;;;;;23.64;52.96;98762.78;5072085;28;20310;-67
2023/10/25 11:39:06;;;;;;;21.07;6.37;;;;;;;23.56;53.81;98760.75;5071924;28;20187;-70
2023/10/25 11:41:33;;;;;;;19.50;6.87;;;;;;;23.68;54.24;98746.72;5072354;28;20241;-69